Terminal Aerodrome Forecast
Issued by NWS Cleveland, OH

Home | Current Version | Previous Version | Graphics & Text | Print | Product List | Glossary On
Versions: 1 2 3 4 5 6 7 8 9 10 11 12 13 14 15
032
FTUS41 KCLE 231944 AAB
TAFTOL
TAF AMD
KTOL 231944Z 2320/2418 29006KT P6SM SCT030 BKN100
      TEMPO 2320/2323 5SM -TSRA BKN020CB
     FM240600 30008KT P6SM BKN060
     FM241400 33010KT P6SM BKN025=

USA.gov is the U.S. government's official web portal to all federal, state and local government web resources and services.